sensor_id;sensor_type;location;lat;lon;timestamp;P1;durP1;ratioP1;P2;durP2;ratioP2
16193;SDS011;8204;53.582;10.080;2024-03-02T00:00:20;31.80;;;25.93;;
16193;SDS011;8204;53.582;10.080;2024-03-02T00:02:47;27.93;;;24.17;;
16193;SDS011;8204;53.582;10.080;2024-03-02T00:05:15;27.30;;;24.07;;
16193;SDS011;8204;53.582;10.080;2024-03-02T00:07:42;28.13;;;25.17;;
16193;SDS011;8204;53.582;10.080;2024-03-02T00:10:11;30.47;;;24.07;;
16193;SDS011;8204;53.582;10.080;2024-03-02T00:12:42;27.20;;;23.87;;
16193;SDS011;8204;53.582;10.080;2024-03-02T00:15:42;27.47;;;24.67;;
16193;SDS011;8204;53.582;10.080;2024-03-02T00:18:00;29.73;;;25.93;;
16193;SDS011;8204;53.582;10.080;2024-03-02T00:20:26;32.57;;;28.33;;
16193;SDS011;8204;53.582;10.080;2024-03-02T00:23:04;31.17;;;27.60;;
16193;SDS011;8204;53.582;10.080;2024-03-02T00:25:41;32.93;;;28.77;;
16193;SDS011;8204;53.582;10.080;2024-03-02T00:28:25;33.10;;;29.50;;
16193;SDS011;8204;53.582;10.080;2024-03-02T00:36:15;34.37;;;30.73;;
16193;SDS011;8204;53.582;10.080;2024-03-02T00:38:51;33.20;;;29.73;;
16193;SDS011;8204;53.582;10.080;2024-03-02T00:46:42;36.77;;;31.00;;
16193;SDS011;8204;53.582;10.080;2024-03-02T00:49:17;35.27;;;31.47;;
16193;SDS011;8204;53.582;10.080;2024-03-02T00:51:46;38.77;;;31.33;;
16193;SDS011;8204;53.582;10.080;2024-03-02T00:54:20;40.33;;;31.07;;
16193;SDS011;8204;53.582;10.080;2024-03-02T00:56:51;35.57;;;31.17;;
16193;SDS011;8204;53.582;10.080;2024-03-02T00:59:17;41.40;;;31.87;;
16193;SDS011;8204;53.582;10.080;2024-03-02T01:01:43;36.33;;;31.40;;
16193;SDS011;8204;53.582;10.080;2024-03-02T01:04:09;38.77;;;32.20;;
16193;SDS011;8204;53.582;10.080;2024-03-02T01:06:35;43.50;;;34.40;;
16193;SDS011;8204;53.582;10.080;2024-03-02T01:09:01;37.70;;;31.90;;
16193;SDS011;8204;53.582;10.080;2024-03-02T01:11:28;36.97;;;31.90;;
16193;SDS011;8204;53.582;10.080;2024-03-02T01:13:55;36.40;;;32.57;;
16193;SDS011;8204;53.582;10.080;2024-03-02T01:16:21;37.07;;;33.07;;
16193;SDS011;8204;53.582;10.080;2024-03-02T01:18:46;36.70;;;32.93;;
16193;SDS011;8204;53.582;10.080;2024-03-02T01:21:19;38.40;;;33.83;;
16193;SDS011;8204;53.582;10.080;2024-03-02T01:23:50;37.60;;;33.67;;
16193;SDS011;8204;53.582;10.080;2024-03-02T01:26:15;39.10;;;33.40;;
16193;SDS011;8204;53.582;10.080;2024-03-02T01:28:41;37.60;;;33.13;;
16193;SDS011;8204;53.582;10.080;2024-03-02T01:31:07;39.37;;;32.87;;
16193;SDS011;8204;53.582;10.080;2024-03-02T01:33:32;38.70;;;32.70;;
16193;SDS011;8204;53.582;10.080;2024-03-02T01:35:57;38.57;;;32.50;;
16193;SDS011;8204;53.582;10.080;2024-03-02T01:38:23;41.80;;;34.47;;
16193;SDS011;8204;53.582;10.080;2024-03-02T01:40:49;37.73;;;33.70;;
16193;SDS011;8204;53.582;10.080;2024-03-02T01:43:14;38.23;;;32.70;;
16193;SDS011;8204;53.582;10.080;2024-03-02T01:45:41;38.23;;;33.10;;
16193;SDS011;8204;53.582;10.080;2024-03-02T01:48:06;41.67;;;34.57;;
16193;SDS011;8204;53.582;10.080;2024-03-02T01:50:32;43.73;;;35.20;;
16193;SDS011;8204;53.582;10.080;2024-03-02T01:52:58;38.37;;;34.20;;
16193;SDS011;8204;53.582;10.080;2024-03-02T01:55:24;41.67;;;35.63;;
16193;SDS011;8204;53.582;10.080;2024-03-02T01:57:51;38.83;;;34.17;;
16193;SDS011;8204;53.582;10.080;2024-03-02T02:00:18;38.30;;;34.50;;
16193;SDS011;8204;53.582;10.080;2024-03-02T02:02:45;39.70;;;33.20;;
16193;SDS011;8204;53.582;10.080;2024-03-02T02:05:12;37.80;;;32.63;;
16193;SDS011;8204;53.582;10.080;2024-03-02T02:07:38;39.90;;;35.80;;
16193;SDS011;8204;53.582;10.080;2024-03-02T02:10:04;38.50;;;34.50;;
16193;SDS011;8204;53.582;10.080;2024-03-02T02:12:29;38.13;;;33.97;;
16193;SDS011;8204;53.582;10.080;2024-03-02T02:14:55;39.10;;;34.20;;
16193;SDS011;8204;53.582;10.080;2024-03-02T02:17:21;38.20;;;33.37;;
16193;SDS011;8204;53.582;10.080;2024-03-02T02:19:46;43.77;;;35.90;;
16193;SDS011;8204;53.582;10.080;2024-03-02T02:22:12;39.90;;;35.43;;
16193;SDS011;8204;53.582;10.080;2024-03-02T02:24:40;38.93;;;34.57;;
16193;SDS011;8204;53.582;10.080;2024-03-02T02:27:07;42.33;;;35.63;;
16193;SDS011;8204;53.582;10.080;2024-03-02T02:29:33;37.97;;;33.37;;
16193;SDS011;8204;53.582;10.080;2024-03-02T02:31:59;40.03;;;35.07;;
16193;SDS011;8204;53.582;10.080;2024-03-02T02:34:25;38.07;;;33.93;;
16193;SDS011;8204;53.582;10.080;2024-03-02T02:36:50;41.20;;;34.10;;
16193;SDS011;8204;53.582;10.080;2024-03-02T02:39:18;41.70;;;35.90;;
16193;SDS011;8204;53.582;10.080;2024-03-02T02:41:46;40.43;;;33.87;;
16193;SDS011;8204;53.582;10.080;2024-03-02T02:44:12;38.67;;;34.67;;
16193;SDS011;8204;53.582;10.080;2024-03-02T02:46:38;43.53;;;35.93;;
16193;SDS011;8204;53.582;10.080;2024-03-02T02:49:04;38.27;;;34.13;;
16193;SDS011;8204;53.582;10.080;2024-03-02T02:51:30;37.60;;;33.37;;
16193;SDS011;8204;53.582;10.080;2024-03-02T02:53:56;36.20;;;32.63;;
16193;SDS011;8204;53.582;10.080;2024-03-02T02:56:21;37.50;;;33.40;;
16193;SDS011;8204;53.582;10.080;2024-03-02T02:58:47;39.27;;;35.03;;
16193;SDS011;8204;53.582;10.080;2024-03-02T03:01:13;38.53;;;34.20;;
16193;SDS011;8204;53.582;10.080;2024-03-02T03:03:38;37.87;;;33.43;;
16193;SDS011;8204;53.582;10.080;2024-03-02T03:06:04;42.53;;;33.73;;
16193;SDS011;8204;53.582;10.080;2024-03-02T03:08:30;37.97;;;33.97;;
16193;SDS011;8204;53.582;10.080;2024-03-02T03:10:56;38.97;;;32.57;;
16193;SDS011;8204;53.582;10.080;2024-03-02T03:13:22;39.83;;;35.43;;
16193;SDS011;8204;53.582;10.080;2024-03-02T03:15:47;40.50;;;34.70;;
16193;SDS011;8204;53.582;10.080;2024-03-02T03:18:13;37.43;;;33.10;;
16193;SDS011;8204;53.582;10.080;2024-03-02T03:20:38;38.43;;;34.17;;
16193;SDS011;8204;53.582;10.080;2024-03-02T03:23:04;38.07;;;34.03;;
16193;SDS011;8204;53.582;10.080;2024-03-02T03:25:30;37.10;;;32.90;;
16193;SDS011;8204;53.582;10.080;2024-03-02T03:27:56;36.40;;;32.57;;
16193;SDS011;8204;53.582;10.080;2024-03-02T03:30:21;37.27;;;33.47;;
16193;SDS011;8204;53.582;10.080;2024-03-02T03:32:47;39.23;;;33.67;;
16193;SDS011;8204;53.582;10.080;2024-03-02T03:35:13;39.37;;;34.00;;
16193;SDS011;8204;53.582;10.080;2024-03-02T03:37:40;36.20;;;32.40;;
16193;SDS011;8204;53.582;10.080;2024-03-02T03:40:06;37.40;;;32.67;;
16193;SDS011;8204;53.582;10.080;2024-03-02T03:42:36;35.67;;;31.97;;
16193;SDS011;8204;53.582;10.080;2024-03-02T03:45:02;37.53;;;32.60;;
16193;SDS011;8204;53.582;10.080;2024-03-02T03:47:28;35.93;;;32.33;;
16193;SDS011;8204;53.582;10.080;2024-03-02T03:49:54;39.70;;;33.07;;
16193;SDS011;8204;53.582;10.080;2024-03-02T03:52:19;37.43;;;33.33;;
16193;SDS011;8204;53.582;10.080;2024-03-02T03:54:46;37.63;;;32.77;;
16193;SDS011;8204;53.582;10.080;2024-03-02T03:57:12;37.70;;;33.87;;
16193;SDS011;8204;53.582;10.080;2024-03-02T03:59:37;34.83;;;31.03;;
16193;SDS011;8204;53.582;10.080;2024-03-02T04:02:03;35.23;;;31.37;;
16193;SDS011;8204;53.582;10.080;2024-03-02T04:04:29;39.40;;;33.70;;
16193;SDS011;8204;53.582;10.080;2024-03-02T04:06:55;34.97;;;31.27;;
16193;SDS011;8204;53.582;10.080;2024-03-02T04:09:20;34.60;;;30.13;;
16193;SDS011;8204;53.582;10.080;2024-03-02T04:11:46;35.60;;;30.50;;
16193;SDS011;8204;53.582;10.080;2024-03-02T04:14:11;36.13;;;32.27;;
16193;SDS011;8204;53.582;10.080;2024-03-02T04:16:38;35.43;;;30.50;;
16193;SDS011;8204;53.582;10.080;2024-03-02T04:19:04;33.73;;;28.80;;
16193;SDS011;8204;53.582;10.080;2024-03-02T04:21:30;38.13;;;31.23;;
16193;SDS011;8204;53.582;10.080;2024-03-02T04:23:56;34.87;;;31.27;;
16193;SDS011;8204;53.582;10.080;2024-03-02T04:26:24;34.63;;;30.87;;
16193;SDS011;8204;53.582;10.080;2024-03-02T04:28:50;34.47;;;30.90;;
16193;SDS011;8204;53.582;10.080;2024-03-02T04:31:16;32.73;;;29.47;;
16193;SDS011;8204;53.582;10.080;2024-03-02T04:33:42;32.97;;;29.67;;
16193;SDS011;8204;53.582;10.080;2024-03-02T04:36:08;33.63;;;30.10;;
16193;SDS011;8204;53.582;10.080;2024-03-02T04:38:36;33.50;;;30.03;;
16193;SDS011;8204;53.582;10.080;2024-03-02T04:41:02;34.10;;;30.40;;
16193;SDS011;8204;53.582;10.080;2024-03-02T04:43:28;34.37;;;30.13;;
16193;SDS011;8204;53.582;10.080;2024-03-02T04:45:53;31.87;;;28.60;;
16193;SDS011;8204;53.582;10.080;2024-03-02T04:48:19;34.10;;;30.50;;
16193;SDS011;8204;53.582;10.080;2024-03-02T04:50:44;34.50;;;30.80;;
16193;SDS011;8204;53.582;10.080;2024-03-02T04:53:10;32.33;;;28.97;;
16193;SDS011;8204;53.582;10.080;2024-03-02T04:55:35;36.80;;;30.67;;
16193;SDS011;8204;53.582;10.080;2024-03-02T04:58:21;31.73;;;28.63;;
16193;SDS011;8204;53.582;10.080;2024-03-02T05:00:46;34.23;;;30.60;;
16193;SDS011;8204;53.582;10.080;2024-03-02T05:03:12;31.37;;;28.23;;
16193;SDS011;8204;53.582;10.080;2024-03-02T05:05:38;30.17;;;27.03;;
16193;SDS011;8204;53.582;10.080;2024-03-02T05:08:04;34.17;;;30.50;;
16193;SDS011;8204;53.582;10.080;2024-03-02T05:10:30;29.97;;;27.07;;
16193;SDS011;8204;53.582;10.080;2024-03-02T05:12:56;32.43;;;28.20;;
16193;SDS011;8204;53.582;10.080;2024-03-02T05:15:25;30.93;;;27.63;;
16193;SDS011;8204;53.582;10.080;2024-03-02T05:17:50;29.50;;;26.40;;
16193;SDS011;8204;53.582;10.080;2024-03-02T05:20:17;32.50;;;28.33;;
16193;SDS011;8204;53.582;10.080;2024-03-02T05:22:43;29.57;;;26.37;;
16193;SDS011;8204;53.582;10.080;2024-03-02T05:25:08;31.00;;;27.83;;
16193;SDS011;8204;53.582;10.080;2024-03-02T05:27:35;31.97;;;27.30;;
16193;SDS011;8204;53.582;10.080;2024-03-02T05:30:01;31.17;;;27.77;;
16193;SDS011;8204;53.582;10.080;2024-03-02T05:32:27;30.00;;;27.07;;
16193;SDS011;8204;53.582;10.080;2024-03-02T05:34:53;33.53;;;28.00;;
16193;SDS011;8204;53.582;10.080;2024-03-02T05:37:19;31.97;;;27.60;;
16193;SDS011;8204;53.582;10.080;2024-03-02T05:39:45;30.80;;;27.33;;
16193;SDS011;8204;53.582;10.080;2024-03-02T05:42:10;27.40;;;24.37;;
16193;SDS011;8204;53.582;10.080;2024-03-02T05:44:36;31.10;;;27.73;;
16193;SDS011;8204;53.582;10.080;2024-03-02T05:47:02;27.47;;;24.73;;
16193;SDS011;8204;53.582;10.080;2024-03-02T05:49:28;28.20;;;25.27;;
16193;SDS011;8204;53.582;10.080;2024-03-02T05:51:54;30.00;;;26.63;;
16193;SDS011;8204;53.582;10.080;2024-03-02T05:54:19;28.87;;;25.83;;
16193;SDS011;8204;53.582;10.080;2024-03-02T05:56:45;30.97;;;27.07;;
16193;SDS011;8204;53.582;10.080;2024-03-02T05:59:10;30.33;;;27.13;;
16193;SDS011;8204;53.582;10.080;2024-03-02T06:01:39;31.27;;;27.87;;
16193;SDS011;8204;53.582;10.080;2024-03-02T06:04:05;29.27;;;26.27;;
16193;SDS011;8204;53.582;10.080;2024-03-02T06:06:30;28.83;;;25.80;;
16193;SDS011;8204;53.582;10.080;2024-03-02T06:08:58;32.33;;;28.83;;
16193;SDS011;8204;53.582;10.080;2024-03-02T06:11:24;30.10;;;27.03;;
16193;SDS011;8204;53.582;10.080;2024-03-02T06:13:49;31.40;;;27.50;;
16193;SDS011;8204;53.582;10.080;2024-03-02T06:16:15;28.33;;;25.27;;
16193;SDS011;8204;53.582;10.080;2024-03-02T06:18:41;29.53;;;26.63;;
16193;SDS011;8204;53.582;10.080;2024-03-02T06:21:06;29.27;;;26.30;;
16193;SDS011;8204;53.582;10.080;2024-03-02T06:23:32;30.57;;;27.40;;
16193;SDS011;8204;53.582;10.080;2024-03-02T06:25:58;29.93;;;26.83;;
16193;SDS011;8204;53.582;10.080;2024-03-02T06:28:23;29.37;;;26.30;;
16193;SDS011;8204;53.582;10.080;2024-03-02T06:30:48;32.47;;;29.00;;
16193;SDS011;8204;53.582;10.080;2024-03-02T06:33:14;30.07;;;26.97;;
16193;SDS011;8204;53.582;10.080;2024-03-02T06:35:40;29.57;;;26.50;;
16193;SDS011;8204;53.582;10.080;2024-03-02T06:38:06;31.57;;;27.33;;
16193;SDS011;8204;53.582;10.080;2024-03-02T06:40:31;30.33;;;27.00;;
16193;SDS011;8204;53.582;10.080;2024-03-02T06:42:57;30.73;;;27.47;;
16193;SDS011;8204;53.582;10.080;2024-03-02T06:45:22;29.53;;;26.40;;
16193;SDS011;8204;53.582;10.080;2024-03-02T06:47:48;29.77;;;26.67;;
16193;SDS011;8204;53.582;10.080;2024-03-02T06:50:14;29.77;;;26.70;;
16193;SDS011;8204;53.582;10.080;2024-03-02T06:52:40;28.83;;;25.70;;
16193;SDS011;8204;53.582;10.080;2024-03-02T06:55:06;28.83;;;25.97;;
16193;SDS011;8204;53.582;10.080;2024-03-02T06:57:32;26.47;;;23.77;;
16193;SDS011;8204;53.582;10.080;2024-03-02T06:59:57;29.83;;;26.67;;
16193;SDS011;8204;53.582;10.080;2024-03-02T07:02:24;32.67;;;27.70;;
16193;SDS011;8204;53.582;10.080;2024-03-02T07:04:52;29.93;;;26.03;;
16193;SDS011;8204;53.582;10.080;2024-03-02T07:07:18;29.40;;;26.30;;
16193;SDS011;8204;53.582;10.080;2024-03-02T07:09:43;27.53;;;24.73;;
16193;SDS011;8204;53.582;10.080;2024-03-02T07:12:08;27.90;;;24.97;;
16193;SDS011;8204;53.582;10.080;2024-03-02T07:14:34;28.93;;;25.80;;
16193;SDS011;8204;53.582;10.080;2024-03-02T07:17:22;28.53;;;25.63;;
16193;SDS011;8204;53.582;10.080;2024-03-02T07:19:48;30.53;;;25.00;;
16193;SDS011;8204;53.582;10.080;2024-03-02T07:22:13;29.97;;;26.90;;
16193;SDS011;8204;53.582;10.080;2024-03-02T07:24:42;30.27;;;27.00;;
16193;SDS011;8204;53.582;10.080;2024-03-02T07:27:08;27.80;;;25.10;;
16193;SDS011;8204;53.582;10.080;2024-03-02T07:29:34;29.47;;;26.47;;
16193;SDS011;8204;53.582;10.080;2024-03-02T07:31:59;31.90;;;27.03;;
16193;SDS011;8204;53.582;10.080;2024-03-02T07:34:25;28.53;;;25.57;;
16193;SDS011;8204;53.582;10.080;2024-03-02T07:36:52;28.77;;;25.63;;
16193;SDS011;8204;53.582;10.080;2024-03-02T07:39:19;31.40;;;28.03;;
16193;SDS011;8204;53.582;10.080;2024-03-02T07:41:45;28.13;;;25.23;;
16193;SDS011;8204;53.582;10.080;2024-03-02T07:44:11;29.83;;;26.27;;
16193;SDS011;8204;53.582;10.080;2024-03-02T07:46:40;28.43;;;25.63;;
16193;SDS011;8204;53.582;10.080;2024-03-02T07:49:06;30.87;;;27.53;;
16193;SDS011;8204;53.582;10.080;2024-03-02T07:51:32;30.43;;;27.33;;
16193;SDS011;8204;53.582;10.080;2024-03-02T07:53:57;28.33;;;25.53;;
16193;SDS011;8204;53.582;10.080;2024-03-02T07:56:23;28.90;;;25.70;;
16193;SDS011;8204;53.582;10.080;2024-03-02T07:58:48;29.37;;;26.23;;
16193;SDS011;8204;53.582;10.080;2024-03-02T08:01:15;29.53;;;26.47;;
16193;SDS011;8204;53.582;10.080;2024-03-02T08:03:41;29.17;;;26.03;;
16193;SDS011;8204;53.582;10.080;2024-03-02T08:06:06;30.87;;;27.70;;
16193;SDS011;8204;53.582;10.080;2024-03-02T08:08:32;30.93;;;27.73;;
16193;SDS011;8204;53.582;10.080;2024-03-02T08:10:58;30.17;;;26.43;;
16193;SDS011;8204;53.582;10.080;2024-03-02T08:13:24;32.77;;;26.87;;
16193;SDS011;8204;53.582;10.080;2024-03-02T08:15:49;30.57;;;27.43;;
16193;SDS011;8204;53.582;10.080;2024-03-02T08:18:15;31.13;;;26.27;;
16193;SDS011;8204;53.582;10.080;2024-03-02T08:20:40;28.90;;;25.93;;
16193;SDS011;8204;53.582;10.080;2024-03-02T08:23:06;28.47;;;25.47;;
16193;SDS011;8204;53.582;10.080;2024-03-02T08:25:33;31.53;;;26.87;;
16193;SDS011;8204;53.582;10.080;2024-03-02T08:27:58;29.27;;;26.23;;
16193;SDS011;8204;53.582;10.080;2024-03-02T08:30:24;31.80;;;28.47;;
16193;SDS011;8204;53.582;10.080;2024-03-02T08:32:50;30.67;;;27.20;;
16193;SDS011;8204;53.582;10.080;2024-03-02T08:35:15;29.30;;;26.27;;
16193;SDS011;8204;53.582;10.080;2024-03-02T08:37:42;30.30;;;27.20;;
16193;SDS011;8204;53.582;10.080;2024-03-02T08:40:08;32.73;;;29.23;;
16193;SDS011;8204;53.582;10.080;2024-03-02T08:42:34;31.47;;;28.00;;
16193;SDS011;8204;53.582;10.080;2024-03-02T08:45:00;36.27;;;29.40;;
16193;SDS011;8204;53.582;10.080;2024-03-02T08:47:27;31.27;;;28.13;;
16193;SDS011;8204;53.582;10.080;2024-03-02T08:49:52;31.63;;;28.43;;
16193;SDS011;8204;53.582;10.080;2024-03-02T08:52:18;30.97;;;27.93;;
16193;SDS011;8204;53.582;10.080;2024-03-02T08:54:43;31.00;;;27.27;;
16193;SDS011;8204;53.582;10.080;2024-03-02T08:57:08;31.10;;;27.60;;
16193;SDS011;8204;53.582;10.080;2024-03-02T08:59:34;29.13;;;26.23;;
16193;SDS011;8204;53.582;10.080;2024-03-02T09:02:00;36.47;;;29.50;;
16193;SDS011;8204;53.582;10.080;2024-03-02T09:04:26;30.70;;;27.53;;
16193;SDS011;8204;53.582;10.080;2024-03-02T09:06:52;30.90;;;27.57;;
16193;SDS011;8204;53.582;10.080;2024-03-02T09:09:18;31.33;;;28.07;;
16193;SDS011;8204;53.582;10.080;2024-03-02T09:11:44;32.03;;;28.67;;
16193;SDS011;8204;53.582;10.080;2024-03-02T09:14:12;33.50;;;28.37;;
16193;SDS011;8204;53.582;10.080;2024-03-02T09:16:38;28.07;;;25.30;;
16193;SDS011;8204;53.582;10.080;2024-03-02T09:19:03;30.60;;;27.30;;
16193;SDS011;8204;53.582;10.080;2024-03-02T09:21:29;30.10;;;26.97;;
16193;SDS011;8204;53.582;10.080;2024-03-02T09:23:55;31.03;;;27.93;;
16193;SDS011;8204;53.582;10.080;2024-03-02T09:26:22;28.97;;;25.97;;
16193;SDS011;8204;53.582;10.080;2024-03-02T09:28:49;31.63;;;26.87;;
16193;SDS011;8204;53.582;10.080;2024-03-02T09:31:16;30.97;;;26.43;;
16193;SDS011;8204;53.582;10.080;2024-03-02T09:33:41;31.20;;;27.97;;
16193;SDS011;8204;53.582;10.080;2024-03-02T09:36:16;31.80;;;28.40;;
16193;SDS011;8204;53.582;10.080;2024-03-02T09:38:46;28.30;;;25.27;;
16193;SDS011;8204;53.582;10.080;2024-03-02T09:41:12;29.63;;;26.63;;
16193;SDS011;8204;53.582;10.080;2024-03-02T09:43:39;28.33;;;25.40;;
16193;SDS011;8204;53.582;10.080;2024-03-02T09:46:09;28.53;;;25.73;;
16193;SDS011;8204;53.582;10.080;2024-03-02T09:48:36;27.17;;;24.37;;
16193;SDS011;8204;53.582;10.080;2024-03-02T09:51:02;29.90;;;24.50;;
16193;SDS011;8204;53.582;10.080;2024-03-02T09:53:31;25.63;;;23.10;;
16193;SDS011;8204;53.582;10.080;2024-03-02T09:55:58;27.80;;;24.77;;
16193;SDS011;8204;53.582;10.080;2024-03-02T09:58:24;30.60;;;24.10;;
16193;SDS011;8204;53.582;10.080;2024-03-02T10:00:50;28.43;;;25.53;;
16193;SDS011;8204;53.582;10.080;2024-03-02T10:03:16;26.20;;;23.57;;
16193;SDS011;8204;53.582;10.080;2024-03-02T10:05:44;25.07;;;22.53;;
16193;SDS011;8204;53.582;10.080;2024-03-02T10:08:10;25.40;;;22.87;;
16193;SDS011;8204;53.582;10.080;2024-03-02T10:10:36;26.63;;;23.83;;
16193;SDS011;8204;53.582;10.080;2024-03-02T10:13:07;22.23;;;19.97;;
16193;SDS011;8204;53.582;10.080;2024-03-02T10:15:34;24.43;;;21.87;;
16193;SDS011;8204;53.582;10.080;2024-03-02T10:18:02;23.07;;;20.70;;
16193;SDS011;8204;53.582;10.080;2024-03-02T10:20:33;22.80;;;20.63;;
16193;SDS011;8204;53.582;10.080;2024-03-02T10:23:09;22.07;;;19.73;;
16193;SDS011;8204;53.582;10.080;2024-03-02T10:25:36;21.97;;;19.73;;
16193;SDS011;8204;53.582;10.080;2024-03-02T10:28:02;24.97;;;22.37;;
16193;SDS011;8204;53.582;10.080;2024-03-02T10:30:30;22.63;;;20.17;;
16193;SDS011;8204;53.582;10.080;2024-03-02T10:32:57;22.77;;;20.50;;
16193;SDS011;8204;53.582;10.080;2024-03-02T10:35:23;23.37;;;20.90;;
16193;SDS011;8204;53.582;10.080;2024-03-02T10:37:49;22.80;;;20.50;;
16193;SDS011;8204;53.582;10.080;2024-03-02T10:40:14;22.17;;;19.90;;
16193;SDS011;8204;53.582;10.080;2024-03-02T10:42:44;21.83;;;19.60;;
16193;SDS011;8204;53.582;10.080;2024-03-02T10:45:10;23.77;;;21.33;;
16193;SDS011;8204;53.582;10.080;2024-03-02T10:47:38;20.57;;;18.43;;
16193;SDS011;8204;53.582;10.080;2024-03-02T10:50:06;20.57;;;18.30;;
16193;SDS011;8204;53.582;10.080;2024-03-02T10:52:34;19.47;;;17.70;;
16193;SDS011;8204;53.582;10.080;2024-03-02T10:55:04;20.50;;;18.43;;
16193;SDS011;8204;53.582;10.080;2024-03-02T11:00:20;19.63;;;17.63;;
16193;SDS011;8204;53.582;10.080;2024-03-02T11:02:55;17.57;;;15.87;;
16193;SDS011;8204;53.582;10.080;2024-03-02T11:05:28;18.93;;;17.03;;
16193;SDS011;8204;53.582;10.080;2024-03-02T11:08:06;18.20;;;16.37;;
16193;SDS011;8204;53.582;10.080;2024-03-02T11:10:45;17.73;;;16.03;;
16193;SDS011;8204;53.582;10.080;2024-03-02T11:13:16;17.80;;;16.10;;
16193;SDS011;8204;53.582;10.080;2024-03-02T11:15:47;16.93;;;15.40;;
16193;SDS011;8204;53.582;10.080;2024-03-02T11:18:16;18.67;;;16.77;;
16193;SDS011;8204;53.582;10.080;2024-03-02T11:20:42;18.47;;;16.03;;
16193;SDS011;8204;53.582;10.080;2024-03-02T11:23:09;18.63;;;16.83;;
16193;SDS011;8204;53.582;10.080;2024-03-02T11:25:35;16.63;;;15.10;;
16193;SDS011;8204;53.582;10.080;2024-03-02T11:28:02;18.17;;;16.37;;
16193;SDS011;8204;53.582;10.080;2024-03-02T11:32:58;18.50;;;16.53;;
16193;SDS011;8204;53.582;10.080;2024-03-02T11:35:27;19.90;;;17.90;;
16193;SDS011;8204;53.582;10.080;2024-03-02T11:37:54;18.53;;;16.80;;
16193;SDS011;8204;53.582;10.080;2024-03-02T11:40:23;18.97;;;17.03;;
16193;SDS011;8204;53.582;10.080;2024-03-02T11:42:50;16.90;;;15.20;;
16193;SDS011;8204;53.582;10.080;2024-03-02T11:45:17;16.57;;;14.87;;
16193;SDS011;8204;53.582;10.080;2024-03-02T11:47:50;17.00;;;15.40;;
16193;SDS011;8204;53.582;10.080;2024-03-02T11:50:28;15.77;;;14.27;;
16193;SDS011;8204;53.582;10.080;2024-03-02T11:53:02;16.60;;;15.00;;
16193;SDS011;8204;53.582;10.080;2024-03-02T11:55:31;17.50;;;15.83;;
16193;SDS011;8204;53.582;10.080;2024-03-02T11:57:58;16.53;;;14.80;;
16193;SDS011;8204;53.582;10.080;2024-03-02T12:00:26;16.87;;;14.07;;
16193;SDS011;8204;53.582;10.080;2024-03-02T12:03:05;15.60;;;14.10;;
16193;SDS011;8204;53.582;10.080;2024-03-02T12:05:32;13.93;;;12.63;;
16193;SDS011;8204;53.582;10.080;2024-03-02T12:07:58;15.93;;;13.37;;
16193;SDS011;8204;53.582;10.080;2024-03-02T12:10:26;15.17;;;13.67;;
16193;SDS011;8204;53.582;10.080;2024-03-02T12:12:58;15.20;;;13.67;;
16193;SDS011;8204;53.582;10.080;2024-03-02T12:15:28;16.17;;;14.57;;
16193;SDS011;8204;53.582;10.080;2024-03-02T12:17:58;15.93;;;14.43;;
16193;SDS011;8204;53.582;10.080;2024-03-02T12:20:25;17.03;;;15.30;;
16193;SDS011;8204;53.582;10.080;2024-03-02T12:22:52;16.07;;;14.57;;
16193;SDS011;8204;53.582;10.080;2024-03-02T12:25:19;17.50;;;15.77;;
16193;SDS011;8204;53.582;10.080;2024-03-02T12:27:46;17.23;;;15.60;;
16193;SDS011;8204;53.582;10.080;2024-03-02T12:30:15;16.87;;;15.27;;
16193;SDS011;8204;53.582;10.080;2024-03-02T12:32:42;17.90;;;15.60;;
16193;SDS011;8204;53.582;10.080;2024-03-02T12:35:10;16.87;;;15.37;;
16193;SDS011;8204;53.582;10.080;2024-03-02T12:37:47;17.07;;;15.47;;
16193;SDS011;8204;53.582;10.080;2024-03-02T12:40:15;17.30;;;15.53;;
16193;SDS011;8204;53.582;10.080;2024-03-02T12:42:43;20.97;;;16.70;;
16193;SDS011;8204;53.582;10.080;2024-03-02T12:45:09;15.13;;;13.70;;
16193;SDS011;8204;53.582;10.080;2024-03-02T12:47:35;17.33;;;15.63;;
16193;SDS011;8204;53.582;10.080;2024-03-02T12:50:02;17.37;;;15.60;;
16193;SDS011;8204;53.582;10.080;2024-03-02T12:52:29;15.50;;;14.13;;
16193;SDS011;8204;53.582;10.080;2024-03-02T12:54:55;15.13;;;13.73;;
16193;SDS011;8204;53.582;10.080;2024-03-02T12:57:25;15.00;;;13.40;;
16193;SDS011;8204;53.582;10.080;2024-03-02T12:59:52;15.30;;;13.03;;
16193;SDS011;8204;53.582;10.080;2024-03-02T13:02:18;13.40;;;12.10;;
16193;SDS011;8204;53.582;10.080;2024-03-02T13:04:44;15.30;;;13.90;;
16193;SDS011;8204;53.582;10.080;2024-03-02T13:07:10;15.10;;;13.70;;
16193;SDS011;8204;53.582;10.080;2024-03-02T13:09:38;16.17;;;14.60;;
16193;SDS011;8204;53.582;10.080;2024-03-02T13:12:04;15.10;;;13.67;;
16193;SDS011;8204;53.582;10.080;2024-03-02T13:14:32;15.57;;;14.17;;
16193;SDS011;8204;53.582;10.080;2024-03-02T13:16:58;14.93;;;13.40;;
16193;SDS011;8204;53.582;10.080;2024-03-02T13:19:25;14.90;;;13.57;;
16193;SDS011;8204;53.582;10.080;2024-03-02T13:21:51;18.17;;;14.60;;
16193;SDS011;8204;53.582;10.080;2024-03-02T13:24:17;16.37;;;14.47;;
16193;SDS011;8204;53.582;10.080;2024-03-02T13:26:42;13.77;;;12.47;;
16193;SDS011;8204;53.582;10.080;2024-03-02T13:29:08;16.50;;;15.00;;
16193;SDS011;8204;53.582;10.080;2024-03-02T13:31:34;14.50;;;13.30;;
16193;SDS011;8204;53.582;10.080;2024-03-02T13:33:59;15.10;;;13.60;;
16193;SDS011;8204;53.582;10.080;2024-03-02T13:36:25;15.10;;;13.53;;
16193;SDS011;8204;53.582;10.080;2024-03-02T13:38:51;15.07;;;13.57;;
16193;SDS011;8204;53.582;10.080;2024-03-02T13:41:16;15.30;;;13.90;;
16193;SDS011;8204;53.582;10.080;2024-03-02T13:43:42;16.97;;;15.30;;
16193;SDS011;8204;53.582;10.080;2024-03-02T13:46:10;16.47;;;14.60;;
16193;SDS011;8204;53.582;10.080;2024-03-02T13:48:36;14.77;;;13.47;;
16193;SDS011;8204;53.582;10.080;2024-03-02T13:51:02;13.57;;;12.30;;
16193;SDS011;8204;53.582;10.080;2024-03-02T13:53:29;15.43;;;14.03;;
16193;SDS011;8204;53.582;10.080;2024-03-02T13:55:54;15.90;;;14.20;;
16193;SDS011;8204;53.582;10.080;2024-03-02T13:58:20;14.27;;;12.97;;
16193;SDS011;8204;53.582;10.080;2024-03-02T14:00:46;15.07;;;13.70;;
16193;SDS011;8204;53.582;10.080;2024-03-02T14:03:12;15.40;;;13.80;;
16193;SDS011;8204;53.582;10.080;2024-03-02T14:05:38;15.00;;;13.50;;
16193;SDS011;8204;53.582;10.080;2024-03-02T14:08:03;16.10;;;14.43;;
16193;SDS011;8204;53.582;10.080;2024-03-02T14:10:29;16.87;;;15.17;;
16193;SDS011;8204;53.582;10.080;2024-03-02T14:12:55;16.00;;;14.50;;
16193;SDS011;8204;53.582;10.080;2024-03-02T14:15:21;15.30;;;13.90;;
16193;SDS011;8204;53.582;10.080;2024-03-02T14:17:47;15.17;;;13.77;;
16193;SDS011;8204;53.582;10.080;2024-03-02T14:20:13;17.73;;;15.93;;
16193;SDS011;8204;53.582;10.080;2024-03-02T14:22:39;13.80;;;12.50;;
16193;SDS011;8204;53.582;10.080;2024-03-02T14:25:04;15.70;;;14.07;;
16193;SDS011;8204;53.582;10.080;2024-03-02T14:27:30;15.20;;;13.80;;
16193;SDS011;8204;53.582;10.080;2024-03-02T14:29:56;14.77;;;13.27;;
16193;SDS011;8204;53.582;10.080;2024-03-02T14:32:21;14.03;;;12.70;;
16193;SDS011;8204;53.582;10.080;2024-03-02T14:34:46;14.53;;;13.23;;